createdAt,value
2023-02-07T00:13:36.523Z,-8.40
2023-02-07T00:28:37.603Z,-8.54
2023-02-07T00:43:38.680Z,-8.68
2023-02-07T00:58:39.284Z,-8.78
2023-02-07T01:13:39.904Z,-9.01
2023-02-07T01:28:40.959Z,-9.01
2023-02-07T01:43:41.635Z,-9.15
2023-02-07T01:58:42.229Z,-8.90
2023-02-07T02:13:42.902Z,-8.45
2023-02-07T02:28:43.117Z,-7.90
2023-02-07T02:43:43.756Z,-7.50
2023-02-07T02:58:44.355Z,-7.25
2023-02-07T03:13:45.450Z,-7.12
2023-02-07T03:28:45.593Z,-7.00
2023-02-07T03:43:46.703Z,-7.22
2023-02-07T03:58:47.287Z,-7.37
2023-02-07T04:13:47.547Z,-7.50
2023-02-07T04:28:48.119Z,-7.62
2023-02-07T04:43:48.846Z,-7.76
2023-02-07T04:58:49.925Z,-7.75
2023-02-07T05:13:50.566Z,-7.87
2023-02-07T05:28:51.584Z,-8.15
2023-02-07T05:43:51.801Z,-8.48
2023-02-07T05:58:52.399Z,-8.65
2023-02-07T06:13:53.110Z,-8.93
2023-02-07T06:28:54.254Z,-9.22
2023-02-07T06:43:55.338Z,-9.47
2023-02-07T06:58:55.895Z,-9.52
2023-02-07T07:13:56.561Z,-9.11
2023-02-07T07:28:57.149Z,-8.98
2023-02-07T07:43:58.191Z,-8.40
2023-02-07T07:58:59.565Z,-7.07
2023-02-07T08:14:02.027Z,-5.27
2023-02-07T08:29:03.625Z,-4.01
2023-02-07T08:44:04.259Z,-2.78
2023-02-07T08:59:04.849Z,-1.40
2023-02-07T09:14:05.488Z,-0.31
2023-02-07T09:29:06.190Z,0.79
2023-02-07T09:44:07.068Z,2.30
2023-02-07T09:59:07.360Z,3.48
2023-02-07T10:14:07.982Z,3.90
2023-02-07T10:29:08.554Z,4.44
2023-02-07T10:44:09.158Z,4.29
2023-02-07T10:59:09.743Z,4.41
2023-02-07T11:14:10.353Z,4.84
2023-02-07T11:29:11.365Z,5.38
2023-02-07T11:44:11.537Z,5.75
2023-02-07T11:59:12.137Z,5.31
2023-02-07T12:14:13.198Z,5.72
2023-02-07T12:29:14.172Z,5.89
2023-02-07T12:44:14.961Z,5.93
2023-02-07T12:59:15.967Z,6.00
2023-02-07T13:14:17.198Z,5.96
2023-02-07T13:29:17.749Z,5.90
2023-02-07T13:44:18.363Z,6.14
2023-02-07T14:00:37.102Z,5.76
2023-02-07T14:15:37.892Z,4.86
2023-02-07T14:30:39.082Z,3.87
2023-02-07T14:45:39.941Z,3.26
2023-02-07T15:00:40.920Z,2.85
2023-02-07T15:15:42.122Z,2.38
2023-02-07T15:30:44.245Z,1.88
2023-02-07T15:45:44.552Z,1.23
2023-02-07T16:00:46.145Z,0.50
2023-02-07T16:15:46.759Z,-0.04
2023-02-07T16:30:46.872Z,-0.67
2023-02-07T16:45:47.888Z,-1.09
2023-02-07T17:00:49.492Z,-1.45
2023-02-07T17:15:49.694Z,-1.79
2023-02-07T17:30:50.739Z,-2.03
2023-02-07T17:45:50.903Z,-2.30
2023-02-07T18:00:52.582Z,-2.32
2023-02-07T18:15:53.363Z,-2.39
2023-02-07T18:30:54.898Z,-2.56
2023-02-07T18:45:56.377Z,-2.77
2023-02-07T19:00:56.540Z,-3.14
2023-02-07T19:15:57.907Z,-3.46
2023-02-07T19:30:58.545Z,-3.85
2023-02-07T19:45:59.057Z,-4.21
2023-02-07T20:01:00.205Z,-4.58
2023-02-07T20:16:01.090Z,-4.75
2023-02-07T20:31:01.616Z,-4.93
2023-02-07T20:46:02.688Z,-5.11
2023-02-07T21:01:04.252Z,-5.36
2023-02-07T21:16:05.394Z,-5.55
2023-02-07T21:31:06.006Z,-5.80
2023-02-07T21:46:07.497Z,-5.97
2023-02-07T22:01:08.300Z,-6.34
2023-02-07T22:16:08.875Z,-6.34
2023-02-07T22:31:11.035Z,-6.54
2023-02-07T22:46:11.799Z,-6.71
2023-02-07T23:01:12.005Z,-6.86
2023-02-07T23:16:12.742Z,-7.00
2023-02-07T23:31:13.459Z,-7.11
2023-02-07T23:46:14.535Z,-7.21
